createdAt,value
2023-04-15T00:00:45.993Z,0.01
2023-04-15T00:01:46.055Z,0.15
2023-04-15T00:02:46.137Z,0.01
2023-04-15T00:03:46.214Z,0.01
2023-04-15T00:04:46.112Z,0.00
2023-04-15T00:05:46.000Z,0.00
2023-04-15T00:06:45.990Z,0.00
2023-04-15T00:07:46.007Z,0.00
2023-04-15T00:08:46.028Z,0.00
2023-04-15T00:09:46.021Z,0.00
2023-04-15T00:10:46.003Z,0.00
2023-04-15T00:11:46.002Z,0.00
2023-04-15T00:12:46.005Z,0.00
2023-04-15T00:13:46.042Z,0.00
2023-04-15T00:14:46.011Z,0.00
2023-04-15T00:15:46.011Z,0.00
2023-04-15T00:16:46.049Z,0.00
2023-04-15T00:17:46.036Z,0.00
2023-04-15T00:18:46.011Z,0.00
2023-04-15T00:19:46.037Z,0.00
2023-04-15T00:20:46.002Z,0.00
2023-04-15T00:21:46.001Z,0.00
2023-04-15T00:22:46.003Z,0.00
2023-04-15T00:23:46.011Z,0.00
2023-04-15T00:24:46.023Z,0.00
2023-04-15T00:25:46.014Z,0.00
2023-04-15T00:26:46.007Z,0.00
2023-04-15T00:27:46.077Z,0.00
2023-04-15T00:28:46.014Z,0.00
2023-04-15T00:29:46.049Z,0.00
2023-04-15T00:30:46.097Z,0.00
2023-04-15T00:31:46.059Z,0.00
2023-04-15T00:32:46.091Z,0.00
2023-04-15T00:33:46.021Z,0.00
2023-04-15T00:34:46.019Z,0.00
2023-04-15T00:35:46.052Z,0.02
2023-04-15T00:36:46.006Z,0.00
2023-04-15T00:37:46.484Z,0.00
2023-04-15T00:38:46.060Z,0.00
2023-04-15T00:39:46.027Z,0.00
2023-04-15T00:40:46.044Z,0.00
2023-04-15T00:41:46.027Z,0.00
2023-04-15T00:42:46.032Z,0.00
2023-04-15T00:43:46.005Z,0.00
2023-04-15T00:44:46.024Z,0.00
2023-04-15T00:45:46.056Z,0.00
2023-04-15T00:46:46.024Z,0.00
2023-04-15T00:47:46.036Z,0.00
2023-04-15T00:48:46.030Z,0.00
2023-04-15T00:49:46.048Z,0.16
2023-04-15T00:50:46.042Z,0.00
2023-04-15T00:51:46.046Z,0.36
2023-04-15T00:52:46.032Z,0.00
2023-04-15T00:53:46.021Z,0.00
2023-04-15T00:54:46.055Z,0.00
2023-04-15T00:55:46.053Z,0.00
2023-04-15T00:56:46.064Z,0.00
2023-04-15T00:57:46.058Z,0.00
2023-04-15T00:58:46.034Z,0.00
2023-04-15T00:59:46.052Z,0.00
2023-04-15T01:00:46.060Z,0.00
2023-04-15T01:01:46.229Z,0.00
2023-04-15T01:02:46.221Z,0.00
2023-04-15T01:03:46.283Z,0.00
2023-04-15T01:04:46.036Z,0.00
2023-04-15T01:05:46.038Z,0.00
2023-04-15T01:06:46.096Z,0.00
2023-04-15T01:07:46.073Z,0.00
2023-04-15T01:08:46.049Z,0.00
2023-04-15T01:09:46.056Z,0.00
2023-04-15T01:10:46.057Z,0.00
2023-04-15T01:11:46.064Z,0.00
2023-04-15T01:12:46.068Z,0.00
2023-04-15T01:13:46.052Z,0.00
2023-04-15T01:14:46.072Z,0.00
2023-04-15T01:15:46.077Z,0.00
2023-04-15T01:16:46.062Z,0.00
2023-04-15T01:17:46.109Z,0.00
2023-04-15T01:18:46.060Z,0.00
2023-04-15T01:19:46.060Z,0.00
2023-04-15T01:20:46.088Z,0.00
2023-04-15T01:21:46.079Z,0.00
2023-04-15T01:22:46.077Z,0.00
2023-04-15T01:23:46.071Z,0.00
2023-04-15T01:24:46.052Z,0.00
2023-04-15T01:25:46.068Z,0.00
2023-04-15T01:26:46.067Z,0.00
2023-04-15T01:27:46.074Z,0.00
2023-04-15T01:28:46.083Z,0.00
2023-04-15T01:29:46.059Z,0.03
2023-04-15T01:30:46.069Z,0.14
2023-04-15T01:31:46.066Z,0.00
2023-04-15T01:32:46.120Z,0.00
2023-04-15T01:33:46.432Z,0.00
2023-04-15T01:34:46.075Z,0.00
2023-04-15T01:35:46.068Z,0.00
2023-04-15T01:36:46.070Z,0.00
2023-04-15T01:37:46.097Z,0.00
2023-04-15T01:38:46.253Z,0.00
2023-04-15T01:39:46.086Z,0.00
2023-04-15T01:40:46.113Z,0.00
2023-04-15T01:41:46.079Z,0.00
2023-04-15T01:42:46.082Z,0.00
2023-04-15T01:43:46.087Z,0.00
2023-04-15T01:44:46.156Z,0.00
2023-04-15T01:45:46.128Z,0.00
2023-04-15T01:46:46.149Z,0.00
2023-04-15T01:47:46.210Z,0.01
2023-04-15T01:48:46.177Z,0.00
2023-04-15T01:49:46.159Z,0.00
2023-04-15T01:50:46.180Z,0.00
2023-04-15T01:51:46.228Z,0.00
2023-04-15T01:52:46.197Z,0.00
2023-04-15T01:53:46.264Z,0.00
2023-04-15T01:54:46.221Z,0.00
2023-04-15T01:55:46.257Z,0.00
2023-04-15T01:56:46.273Z,0.00
2023-04-15T01:57:46.268Z,0.00
2023-04-15T01:58:46.276Z,0.00
2023-04-15T01:59:46.320Z,0.00
2023-04-15T02:00:46.329Z,0.00
2023-04-15T02:01:46.382Z,0.00
2023-04-15T02:02:46.382Z,0.01
2023-04-15T02:03:46.442Z,0.00
2023-04-15T02:04:46.356Z,0.01
2023-04-15T02:05:46.381Z,0.00
2023-04-15T02:06:46.396Z,0.00
2023-04-15T02:07:46.395Z,0.00
2023-04-15T02:08:46.404Z,0.00
2023-04-15T02:09:46.406Z,0.00
2023-04-15T02:10:46.435Z,0.00
2023-04-15T02:11:46.526Z,0.00
2023-04-15T02:12:46.698Z,0.00
2023-04-15T02:13:46.513Z,0.00
2023-04-15T02:14:46.527Z,0.00
2023-04-15T02:15:46.519Z,0.00
2023-04-15T02:16:46.567Z,0.00
2023-04-15T02:17:46.597Z,0.00
2023-04-15T02:19:24.185Z,0.00
2023-04-15T02:20:24.172Z,0.00
2023-04-15T02:21:24.210Z,0.00
2023-04-15T02:22:24.199Z,0.00
2023-04-15T02:23:24.170Z,0.01
2023-04-15T02:24:24.220Z,0.00
2023-04-15T02:25:24.173Z,0.00
2023-04-15T02:26:24.155Z,0.00
2023-04-15T02:27:24.220Z,0.00
2023-04-15T02:28:24.193Z,0.00
2023-04-15T02:29:24.195Z,0.00
2023-04-15T02:30:24.215Z,0.00
2023-04-15T02:31:24.198Z,0.00
2023-04-15T02:32:24.272Z,0.00
2023-04-15T02:33:24.202Z,0.00
2023-04-15T02:34:24.185Z,0.01
2023-04-15T02:35:24.212Z,0.00
2023-04-15T02:36:24.218Z,0.00
2023-04-15T02:37:24.205Z,0.00
2023-04-15T02:38:24.188Z,0.00
2023-04-15T02:39:24.215Z,0.00
2023-04-15T02:40:24.184Z,0.00
2023-04-15T02:41:24.204Z,0.00
2023-04-15T02:42:24.224Z,0.00
2023-04-15T02:43:24.218Z,0.00
2023-04-15T02:44:24.209Z,0.00
2023-04-15T02:45:24.188Z,0.00
2023-04-15T02:46:24.357Z,0.00
2023-04-15T02:47:24.248Z,0.00
2023-04-15T02:48:24.204Z,0.00
2023-04-15T02:49:24.231Z,0.12
2023-04-15T02:50:24.209Z,0.01
2023-04-15T02:51:24.203Z,0.00
2023-04-15T02:52:24.212Z,0.00
2023-04-15T02:53:24.226Z,0.00
2023-04-15T02:54:24.210Z,0.00
2023-04-15T02:55:24.210Z,0.00
2023-04-15T02:56:24.354Z,0.00
2023-04-15T02:57:24.351Z,0.00
2023-04-15T02:58:24.379Z,0.00
2023-04-15T02:59:24.414Z,0.00
2023-04-15T03:00:24.397Z,0.00
2023-04-15T03:01:24.444Z,0.00
2023-04-15T03:02:24.668Z,0.00
2023-04-15T03:03:24.457Z,0.00
2023-04-15T03:04:24.459Z,0.00
2023-04-15T03:05:24.489Z,0.00
2023-04-15T03:06:24.474Z,0.01
2023-04-15T03:07:24.511Z,0.00
2023-04-15T03:08:24.510Z,0.00
2023-04-15T03:09:24.531Z,0.00
2023-04-15T03:10:24.506Z,0.00
2023-04-15T03:11:24.541Z,0.00
2023-04-15T03:12:24.560Z,0.00
2023-04-15T03:13:24.546Z,0.00
2023-04-15T03:14:24.540Z,0.00
2023-04-15T03:15:24.580Z,0.00
2023-04-15T03:16:24.555Z,0.00
2023-04-15T03:17:24.605Z,0.00
2023-04-15T03:18:24.615Z,0.00
2023-04-15T03:19:24.669Z,0.00
2023-04-15T03:20:24.667Z,0.00
2023-04-15T03:21:24.645Z,0.00
2023-04-15T03:22:24.645Z,0.00
2023-04-15T03:23:24.662Z,0.00
2023-04-15T03:24:24.692Z,0.00
2023-04-15T03:25:24.695Z,0.00
2023-04-15T03:26:24.731Z,0.00
2023-04-15T03:27:24.710Z,0.00
2023-04-15T03:28:24.733Z,0.00
2023-04-15T03:29:24.801Z,0.00
2023-04-15T03:30:24.758Z,0.00
2023-04-15T03:31:24.888Z,0.00
2023-04-15T03:32:24.870Z,0.00
2023-04-15T03:33:24.866Z,0.00
2023-04-15T03:34:24.861Z,0.00
2023-04-15T03:35:24.892Z,0.00
2023-04-15T03:36:24.933Z,0.00
2023-04-15T03:37:24.911Z,0.00
2023-04-15T03:38:24.934Z,0.00
2023-04-15T03:39:24.929Z,0.00
2023-04-15T03:40:24.911Z,0.00
2023-04-15T03:41:24.960Z,0.00
2023-04-15T03:42:24.953Z,0.00
2023-04-15T03:43:24.942Z,0.00
2023-04-15T03:44:24.926Z,0.00
2023-04-15T03:45:24.924Z,0.00
2023-04-15T03:46:24.937Z,0.00
2023-04-15T03:47:25.011Z,0.00
2023-04-15T03:48:24.970Z,0.00
2023-04-15T03:49:24.960Z,0.00
2023-04-15T03:50:25.000Z,0.00
2023-04-15T03:51:24.996Z,0.00
2023-04-15T03:52:25.040Z,0.00
2023-04-15T03:53:25.028Z,0.00
2023-04-15T03:54:25.047Z,0.00
2023-04-15T03:55:25.050Z,0.00
2023-04-15T03:56:25.053Z,0.00
2023-04-15T03:57:25.115Z,0.00
2023-04-15T03:58:25.104Z,0.12
2023-04-15T03:59:25.088Z,0.00
2023-04-15T04:00:25.121Z,0.00
2023-04-15T04:01:25.162Z,0.00
2023-04-15T04:02:25.284Z,0.00
2023-04-15T04:03:25.390Z,0.00
2023-04-15T04:04:25.283Z,0.00
2023-04-15T04:05:25.185Z,0.00
2023-04-15T04:06:25.193Z,0.00
2023-04-15T04:07:25.212Z,0.00
2023-04-15T04:08:25.207Z,0.00
2023-04-15T04:09:25.223Z,0.00
2023-04-15T04:10:25.245Z,0.00
2023-04-15T04:11:25.272Z,0.00
2023-04-15T04:12:25.255Z,0.00
2023-04-15T04:13:25.263Z,0.00
2023-04-15T04:14:25.264Z,0.00
2023-04-15T04:15:25.390Z,0.00
2023-04-15T04:16:25.440Z,0.00
2023-04-15T04:17:25.455Z,0.00
2023-04-15T04:18:25.313Z,0.00
2023-04-15T04:19:25.336Z,0.00
2023-04-15T04:20:25.341Z,0.02
2023-04-15T04:21:25.356Z,0.00
2023-04-15T04:22:25.387Z,0.00
2023-04-15T04:23:25.435Z,0.00
2023-04-15T04:24:25.394Z,0.00
2023-04-15T04:25:25.406Z,0.00
2023-04-15T04:26:25.425Z,0.00
2023-04-15T04:27:25.439Z,0.00
2023-04-15T04:28:25.436Z,0.00
2023-04-15T04:29:25.436Z,0.00
2023-04-15T04:30:25.469Z,0.00
2023-04-15T04:31:25.502Z,0.00
2023-04-15T04:32:25.538Z,0.00
2023-04-15T04:33:25.499Z,0.00
2023-04-15T04:34:25.497Z,0.00
2023-04-15T04:35:25.532Z,0.00
2023-04-15T04:36:25.534Z,0.00
2023-04-15T04:37:25.549Z,0.00
2023-04-15T04:38:25.558Z,0.00
2023-04-15T04:39:25.573Z,0.00
2023-04-15T04:40:25.576Z,0.00
2023-04-15T04:41:25.586Z,0.00
2023-04-15T04:42:25.582Z,0.00
2023-04-15T04:43:25.648Z,0.00
2023-04-15T04:44:25.639Z,0.00
2023-04-15T04:45:25.620Z,0.00
2023-04-15T04:46:25.634Z,0.00
2023-04-15T04:47:25.704Z,0.00
2023-04-15T04:48:25.669Z,0.00
2023-04-15T04:49:25.709Z,0.00
2023-04-15T04:50:25.698Z,0.00
2023-04-15T04:51:25.712Z,0.00
2023-04-15T04:52:25.729Z,0.00
2023-04-15T04:53:25.748Z,0.00
2023-04-15T04:54:25.752Z,0.00
2023-04-15T04:55:25.751Z,0.00
2023-04-15T04:56:25.764Z,0.04
2023-04-15T04:57:25.779Z,0.00
2023-04-15T04:58:25.825Z,0.00
2023-04-15T04:59:25.787Z,0.00
2023-04-15T05:00:25.828Z,0.00
2023-04-15T05:01:25.904Z,0.00
2023-04-15T05:02:25.935Z,0.00
2023-04-15T05:03:25.934Z,0.00
2023-04-15T05:04:25.889Z,0.00
2023-04-15T05:05:25.883Z,0.00
2023-04-15T05:06:25.889Z,0.00
2023-04-15T05:07:25.914Z,0.00
2023-04-15T05:08:25.940Z,0.00
2023-04-15T05:09:25.935Z,0.00
2023-04-15T05:10:25.953Z,0.00
2023-04-15T05:11:25.966Z,0.00
2023-04-15T05:12:25.965Z,0.00
2023-04-15T05:13:25.970Z,0.01
2023-04-15T05:14:25.986Z,0.00
2023-04-15T05:15:26.003Z,0.00
2023-04-15T05:16:26.010Z,0.00
2023-04-15T05:17:26.070Z,0.00
2023-04-15T05:18:26.036Z,0.00
2023-04-15T05:19:26.040Z,0.00
2023-04-15T05:20:26.088Z,0.00
2023-04-15T05:21:26.157Z,0.00
2023-04-15T05:22:26.076Z,0.00
2023-04-15T05:23:26.092Z,0.00
2023-04-15T05:24:26.099Z,0.00
2023-04-15T05:25:26.133Z,0.00
2023-04-15T05:26:26.137Z,0.00
2023-04-15T05:27:26.149Z,0.00
2023-04-15T05:28:26.155Z,0.00
2023-04-15T05:29:26.176Z,0.00
2023-04-15T05:30:26.196Z,0.00
2023-04-15T05:31:26.258Z,0.00
2023-04-15T05:32:26.236Z,0.00
2023-04-15T05:33:26.219Z,0.00
2023-04-15T05:34:26.207Z,0.42
2023-04-15T05:35:26.248Z,0.11
2023-04-15T05:36:26.251Z,0.12
2023-04-15T05:37:26.265Z,0.00
2023-04-15T05:38:26.259Z,0.01
2023-04-15T05:39:26.297Z,0.00
2023-04-15T05:40:26.287Z,0.00
2023-04-15T05:41:26.339Z,0.00
2023-04-15T05:42:26.327Z,0.00
2023-04-15T05:43:26.338Z,0.00
2023-04-15T05:44:26.318Z,0.00
2023-04-15T05:45:26.371Z,0.00
2023-04-15T05:46:26.437Z,0.00
2023-04-15T05:47:26.410Z,0.00
2023-04-15T05:48:26.378Z,0.00
2023-04-15T05:49:26.391Z,0.00
2023-04-15T05:50:26.408Z,0.00
2023-04-15T05:51:26.418Z,0.00
2023-04-15T05:52:26.438Z,0.00
2023-04-15T05:53:26.450Z,0.00
2023-04-15T05:54:26.450Z,0.00
2023-04-15T05:55:26.466Z,0.00
2023-04-15T05:56:26.465Z,0.00
2023-04-15T05:57:26.498Z,0.00
2023-04-15T05:58:26.512Z,0.00
2023-04-15T05:59:26.520Z,0.00
2023-04-15T06:00:26.534Z,0.00
2023-04-15T06:01:26.529Z,0.00
2023-04-15T06:02:26.727Z,0.00
2023-04-15T06:03:26.662Z,0.00
2023-04-15T06:04:26.701Z,0.00
2023-04-15T06:05:26.584Z,0.00
2023-04-15T06:06:26.593Z,0.00
2023-04-15T06:07:26.615Z,0.00
2023-04-15T06:08:26.643Z,0.00
2023-04-15T06:09:26.623Z,0.00
2023-04-15T06:10:26.661Z,0.00
2023-04-15T06:11:26.662Z,0.00
2023-04-15T06:12:26.671Z,0.00
2023-04-15T06:13:26.684Z,0.00
2023-04-15T06:14:26.700Z,0.00
2023-04-15T06:15:26.711Z,0.00
2023-04-15T06:16:26.777Z,0.00
2023-04-15T06:17:26.818Z,0.00
2023-04-15T06:18:26.748Z,0.00
2023-04-15T06:19:26.754Z,0.00
2023-04-15T06:20:26.753Z,0.00
2023-04-15T06:21:26.776Z,0.00
2023-04-15T06:22:26.789Z,0.00
2023-04-15T06:23:28.069Z,0.00
2023-04-15T06:24:26.839Z,0.00
2023-04-15T06:25:26.873Z,0.00
2023-04-15T06:26:26.832Z,0.00
2023-04-15T06:27:26.846Z,0.00
2023-04-15T06:28:26.902Z,0.00
2023-04-15T06:29:26.886Z,0.00
2023-04-15T06:30:26.885Z,0.00
2023-04-15T06:31:26.942Z,0.00
2023-04-15T06:32:26.926Z,0.00
2023-04-15T06:33:26.905Z,0.00
2023-04-15T06:34:26.928Z,0.00
2023-04-15T06:35:26.941Z,0.00
2023-04-15T06:36:26.967Z,0.00
2023-04-15T06:37:26.962Z,0.00
2023-04-15T06:38:26.973Z,0.00
2023-04-15T06:39:26.988Z,0.00
2023-04-15T06:40:27.091Z,0.00
2023-04-15T06:41:27.012Z,0.00
2023-04-15T06:42:27.036Z,0.00
2023-04-15T06:43:27.045Z,0.00
2023-04-15T06:44:27.048Z,0.00
2023-04-15T06:45:27.087Z,0.00
2023-04-15T06:46:27.147Z,0.00
2023-04-15T06:47:27.123Z,0.00
2023-04-15T06:48:27.107Z,0.00
2023-04-15T06:49:27.120Z,0.00
2023-04-15T06:50:27.138Z,0.00
2023-04-15T06:51:27.158Z,0.00
2023-04-15T06:52:27.131Z,0.00
2023-04-15T06:53:27.168Z,0.01
2023-04-15T06:54:27.154Z,0.00
2023-04-15T06:55:27.177Z,0.00
2023-04-15T06:56:27.208Z,0.00
2023-04-15T06:57:27.261Z,0.00
2023-04-15T06:58:27.216Z,0.00
2023-04-15T06:59:27.226Z,0.00
2023-04-15T07:00:27.265Z,0.00
2023-04-15T07:01:27.245Z,0.00
2023-04-15T07:02:27.381Z,0.00
2023-04-15T07:03:27.285Z,0.00
2023-04-15T07:04:27.353Z,0.24
2023-04-15T07:05:27.299Z,0.24
2023-04-15T07:06:27.306Z,0.00
2023-04-15T07:07:27.335Z,0.00
2023-04-15T07:08:27.363Z,0.02
2023-04-15T07:09:27.374Z,0.00
2023-04-15T07:10:27.381Z,0.00
2023-04-15T07:11:27.383Z,0.00
2023-04-15T07:12:27.370Z,0.00
2023-04-15T07:13:27.420Z,0.00
2023-04-15T07:14:27.430Z,0.00
2023-04-15T07:15:27.432Z,0.01
2023-04-15T07:16:29.403Z,0.00
2023-04-15T07:17:27.514Z,0.00
2023-04-15T07:18:27.467Z,0.00
2023-04-15T07:19:27.485Z,0.01
2023-04-15T07:20:27.498Z,0.27
2023-04-15T07:21:27.493Z,0.43
2023-04-15T07:22:27.516Z,0.00
2023-04-15T07:23:27.537Z,0.59
2023-04-15T07:24:27.534Z,0.49
2023-04-15T07:25:27.551Z,0.32
2023-04-15T07:26:27.555Z,0.12
2023-04-15T07:27:27.554Z,0.54
2023-04-15T07:28:27.567Z,0.88
2023-04-15T07:29:27.609Z,0.75
2023-04-15T07:30:27.613Z,0.52
2023-04-15T07:31:27.721Z,0.44
2023-04-15T07:32:27.683Z,0.42
2023-04-15T07:33:27.611Z,1.00
2023-04-15T07:34:27.694Z,0.25
2023-04-15T07:35:27.696Z,0.22
2023-04-15T07:36:27.671Z,0.32
2023-04-15T07:37:27.689Z,0.89
2023-04-15T07:38:27.684Z,0.39
2023-04-15T07:39:27.785Z,0.29
2023-04-15T07:40:27.795Z,0.39
2023-04-15T07:41:27.764Z,0.28
2023-04-15T07:42:27.744Z,0.00
2023-04-15T07:43:27.761Z,0.00
2023-04-15T07:44:27.783Z,0.30
2023-04-15T07:45:27.785Z,0.36
2023-04-15T07:46:27.814Z,0.78
2023-04-15T07:47:27.847Z,0.00
2023-04-15T07:48:27.808Z,0.02
2023-04-15T07:49:27.842Z,0.00
2023-04-15T07:50:27.842Z,0.11
2023-04-15T07:51:27.849Z,0.39
2023-04-15T07:52:27.870Z,0.00
2023-04-15T07:53:27.882Z,0.22
2023-04-15T07:54:27.899Z,0.39
2023-04-15T07:55:28.387Z,0.28
2023-04-15T07:56:27.895Z,0.54
2023-04-15T07:57:27.923Z,0.41
2023-04-15T07:58:27.953Z,0.66
2023-04-15T07:59:27.963Z,0.51
2023-04-15T08:00:27.988Z,0.60
2023-04-15T08:01:27.978Z,0.91
2023-04-15T08:02:28.087Z,0.82
2023-04-15T08:03:28.135Z,0.20
2023-04-15T08:04:28.160Z,0.21
2023-04-15T08:05:28.050Z,0.78
2023-04-15T08:06:28.038Z,0.98
2023-04-15T08:07:28.088Z,0.88
2023-04-15T08:08:28.053Z,0.54
2023-04-15T08:09:28.050Z,0.73
2023-04-15T08:10:28.091Z,0.57
2023-04-15T08:11:28.099Z,0.07
2023-04-15T08:12:28.130Z,0.22
2023-04-15T08:13:28.132Z,0.51
2023-04-15T08:14:28.145Z,0.91
2023-04-15T08:15:28.146Z,0.27
2023-04-15T08:16:28.205Z,0.32
2023-04-15T08:17:28.188Z,0.79
2023-04-15T08:18:28.231Z,0.27
2023-04-15T08:19:48.365Z,0.08
2023-04-15T08:20:48.350Z,0.25
2023-04-15T08:21:48.360Z,0.01
2023-04-15T08:22:48.418Z,0.00
2023-04-15T08:23:48.362Z,0.00
2023-04-15T08:24:48.372Z,0.55
2023-04-15T08:25:48.360Z,0.23
2023-04-15T08:26:48.334Z,0.01
2023-04-15T08:27:48.393Z,0.02
2023-04-15T08:28:48.375Z,0.67
2023-04-15T08:29:48.373Z,0.42
2023-04-15T08:30:48.364Z,0.52
2023-04-15T08:31:48.411Z,0.05
2023-04-15T08:32:48.400Z,0.00
2023-04-15T08:33:48.355Z,0.55
2023-04-15T08:34:48.375Z,0.33
2023-04-15T08:35:48.373Z,0.71
2023-04-15T08:36:48.380Z,0.20
2023-04-15T08:37:48.384Z,0.47
2023-04-15T08:38:48.371Z,0.17
2023-04-15T08:39:48.375Z,0.06
2023-04-15T08:40:48.375Z,0.96
2023-04-15T08:41:48.453Z,0.22
2023-04-15T08:42:48.384Z,0.99
2023-04-15T08:43:48.370Z,0.21
2023-04-15T08:44:48.383Z,0.43
2023-04-15T08:45:48.365Z,0.82
2023-04-15T08:46:48.439Z,0.59
2023-04-15T08:47:48.445Z,0.26
2023-04-15T08:48:48.370Z,0.70
2023-04-15T08:49:48.406Z,0.76
2023-04-15T08:50:48.387Z,0.91
2023-04-15T08:51:48.425Z,1.41
2023-04-15T08:52:48.416Z,1.43
2023-04-15T08:53:48.386Z,0.45
2023-04-15T08:54:48.361Z,0.62
2023-04-15T08:55:48.535Z,1.56
2023-04-15T08:56:48.602Z,0.49
2023-04-15T08:57:48.566Z,1.10
2023-04-15T08:58:48.565Z,1.41
2023-04-15T08:59:48.591Z,0.80
2023-04-15T09:00:48.696Z,0.85
2023-04-15T09:01:48.652Z,1.78
2023-04-15T09:02:48.799Z,0.80
2023-04-15T09:03:48.857Z,0.68
2023-04-15T09:04:48.652Z,0.03
2023-04-15T09:05:48.664Z,0.67
2023-04-15T09:06:48.698Z,0.00
2023-04-15T09:07:48.719Z,0.00
2023-04-15T09:08:48.705Z,0.35
2023-04-15T09:09:48.746Z,0.32
2023-04-15T09:10:48.735Z,0.22
2023-04-15T09:11:48.737Z,0.18
2023-04-15T09:12:48.736Z,0.25
2023-04-15T09:13:48.750Z,0.33
2023-04-15T09:14:48.775Z,0.22
2023-04-15T09:15:48.777Z,0.61
2023-04-15T09:16:50.428Z,0.55
2023-04-15T09:17:48.837Z,0.33
2023-04-15T09:18:48.811Z,0.12
2023-04-15T09:19:48.851Z,0.00
2023-04-15T09:20:48.840Z,0.62
2023-04-15T09:21:48.834Z,0.04
2023-04-15T09:22:48.857Z,0.54
2023-04-15T09:23:48.868Z,0.09
2023-04-15T09:24:48.905Z,0.23
2023-04-15T09:25:48.893Z,0.46
2023-04-15T09:26:48.909Z,0.39
2023-04-15T09:27:48.916Z,0.59
2023-04-15T09:28:48.943Z,0.18
2023-04-15T09:29:48.951Z,0.00
2023-04-15T09:30:50.915Z,0.24
2023-04-15T09:31:48.974Z,0.17
2023-04-15T09:32:49.016Z,0.05
2023-04-15T09:33:48.994Z,0.50
2023-04-15T09:34:49.022Z,0.03
2023-04-15T09:35:49.007Z,0.01
2023-04-15T09:36:50.925Z,0.78
2023-04-15T09:37:49.062Z,0.61
2023-04-15T09:38:49.041Z,0.06
2023-04-15T09:39:49.069Z,0.00
2023-04-15T09:40:49.108Z,0.12
2023-04-15T09:41:49.082Z,0.04
2023-04-15T09:42:50.270Z,0.03
2023-04-15T09:43:49.117Z,0.91
2023-04-15T09:44:49.128Z,0.12
2023-04-15T09:45:49.242Z,0.01
2023-04-15T09:46:49.157Z,0.14
2023-04-15T09:47:49.174Z,0.00
2023-04-15T09:48:49.185Z,0.00
2023-04-15T09:49:49.232Z,0.01
2023-04-15T09:50:49.205Z,0.34
2023-04-15T09:52:03.997Z,0.23
2023-04-15T09:52:49.202Z,0.44
2023-04-15T09:53:49.205Z,1.41
2023-04-15T09:54:49.227Z,0.41
2023-04-15T09:55:49.232Z,0.71
2023-04-15T09:56:49.225Z,0.07
2023-04-15T09:57:49.211Z,0.01
2023-04-15T09:58:49.209Z,0.11
2023-04-15T09:59:49.228Z,0.25
2023-04-15T10:00:49.241Z,0.04
2023-04-15T10:01:49.375Z,0.02
2023-04-15T10:02:49.331Z,0.02
2023-04-15T10:03:49.317Z,0.02
2023-04-15T10:04:49.203Z,0.05
2023-04-15T10:05:49.225Z,0.19
2023-04-15T10:06:49.238Z,0.41
2023-04-15T10:07:49.213Z,0.09
2023-04-15T10:08:49.246Z,0.70
2023-04-15T10:09:49.230Z,0.01
2023-04-15T10:10:49.250Z,0.01
2023-04-15T10:11:49.270Z,0.24
2023-04-15T10:12:49.247Z,0.02
2023-04-15T10:13:49.248Z,0.01
2023-04-15T10:14:49.196Z,0.12
2023-04-15T10:15:49.274Z,0.07
2023-04-15T10:16:49.264Z,0.00
2023-04-15T10:17:49.328Z,0.00
2023-04-15T10:18:49.255Z,0.01
2023-04-15T10:19:49.207Z,0.19
2023-04-15T10:20:49.254Z,0.08
2023-04-15T10:21:49.256Z,0.01
2023-04-15T10:22:49.290Z,0.01
2023-04-15T10:23:49.237Z,0.00
2023-04-15T10:24:49.256Z,0.00
2023-04-15T10:25:49.252Z,0.00
2023-04-15T10:26:49.212Z,0.00
2023-04-15T10:27:49.257Z,0.00
2023-04-15T10:28:49.267Z,0.00
2023-04-15T10:29:49.257Z,0.00
2023-04-15T10:30:49.264Z,0.00
2023-04-15T10:31:49.391Z,0.00
2023-04-15T10:32:49.280Z,0.00
2023-04-15T10:33:49.276Z,0.00
2023-04-15T10:34:49.239Z,0.00
2023-04-15T10:35:49.274Z,0.00
2023-04-15T10:36:49.235Z,0.00
2023-04-15T10:37:49.283Z,0.00
2023-04-15T10:38:49.280Z,0.00
2023-04-15T10:39:49.309Z,0.00
2023-04-15T10:40:49.254Z,0.00
2023-04-15T10:41:49.265Z,0.00
2023-04-15T10:42:49.274Z,0.00
2023-04-15T10:43:49.280Z,0.00
2023-04-15T10:44:49.316Z,0.00
2023-04-15T10:45:49.284Z,0.01
2023-04-15T10:46:49.299Z,0.73
2023-04-15T10:47:49.297Z,0.01
2023-04-15T10:48:49.347Z,0.00
2023-04-15T10:49:49.305Z,0.06
2023-04-15T10:50:49.328Z,0.01
2023-04-15T10:51:49.314Z,0.07
2023-04-15T10:52:49.346Z,0.00
2023-04-15T10:53:49.420Z,0.68
2023-04-15T10:54:49.594Z,0.78
2023-04-15T10:55:49.529Z,0.31
2023-04-15T10:56:49.545Z,0.86
2023-04-15T10:57:49.595Z,0.21
2023-04-15T10:58:49.555Z,0.27
2023-04-15T10:59:49.569Z,0.88
2023-04-15T11:00:49.570Z,0.44
2023-04-15T11:01:49.710Z,0.73
2023-04-15T11:02:49.790Z,0.48
2023-04-15T11:03:49.775Z,0.01
2023-04-15T11:04:49.634Z,0.33
2023-04-15T11:05:49.696Z,0.48
2023-04-15T11:06:49.652Z,0.22
2023-04-15T11:07:49.651Z,1.05
2023-04-15T11:08:49.622Z,1.17
2023-04-15T11:09:49.634Z,0.66
2023-04-15T11:10:49.676Z,0.82
2023-04-15T11:11:49.734Z,0.69
2023-04-15T11:12:49.756Z,0.67
2023-04-15T11:13:49.775Z,0.68
2023-04-15T11:14:49.764Z,0.00
2023-04-15T11:15:49.824Z,0.15
2023-04-15T11:16:49.857Z,0.53
2023-04-15T11:17:49.933Z,0.23
2023-04-15T11:18:49.899Z,0.47
2023-04-15T11:19:49.890Z,0.40
2023-04-15T11:20:49.964Z,0.56
2023-04-15T11:21:49.939Z,0.70
2023-04-15T11:22:49.896Z,0.63
2023-04-15T11:23:49.929Z,0.46
2023-04-15T11:24:49.937Z,1.20
2023-04-15T11:25:49.930Z,0.71
2023-04-15T11:26:49.903Z,0.85
2023-04-15T11:27:49.975Z,0.80
2023-04-15T11:28:49.974Z,0.85
2023-04-15T11:29:49.965Z,0.61
2023-04-15T11:30:49.966Z,0.53
2023-04-15T11:31:50.031Z,0.58
2023-04-15T11:32:50.045Z,0.03
2023-04-15T11:33:49.968Z,0.19
2023-04-15T11:34:49.964Z,0.31
2023-04-15T11:35:49.968Z,0.29
2023-04-15T11:36:50.010Z,0.66
2023-04-15T11:37:50.008Z,0.01
2023-04-15T11:38:49.977Z,0.31
2023-04-15T11:39:50.077Z,0.62
2023-04-15T11:40:50.103Z,0.82
2023-04-15T11:41:50.121Z,0.54
2023-04-15T11:42:50.375Z,0.41
2023-04-15T11:43:50.134Z,1.26
2023-04-15T11:44:50.113Z,0.78
2023-04-15T11:45:50.152Z,0.23
2023-04-15T11:46:50.199Z,0.20
2023-04-15T11:47:50.239Z,0.38
2023-04-15T11:48:50.107Z,0.20
2023-04-15T11:49:50.183Z,0.72
2023-04-15T11:50:50.167Z,0.73
2023-04-15T11:51:50.159Z,0.10
2023-04-15T11:53:25.050Z,0.00
2023-04-15T11:53:50.154Z,0.00
2023-04-15T11:54:50.137Z,0.00
2023-04-15T11:55:50.153Z,0.00
2023-04-15T11:56:50.134Z,0.00
2023-04-15T11:57:50.177Z,0.00
2023-04-15T11:58:50.146Z,0.15
2023-04-15T11:59:50.135Z,0.25
2023-04-15T12:00:50.125Z,0.27
2023-04-15T12:01:50.162Z,0.28
2023-04-15T12:02:50.268Z,0.17
2023-04-15T12:04:01.088Z,0.01
2023-04-15T12:04:50.254Z,0.33
2023-04-15T12:05:50.153Z,0.61
2023-04-15T12:06:50.144Z,0.69
2023-04-15T12:07:50.155Z,0.24
2023-04-15T12:08:50.166Z,0.10
2023-04-15T12:09:50.123Z,0.29
2023-04-15T12:10:50.139Z,0.27
2023-04-15T12:11:50.174Z,0.54
2023-04-15T12:12:50.146Z,0.26
2023-04-15T12:13:50.161Z,0.03
2023-04-15T12:14:50.139Z,0.02
2023-04-15T12:15:50.176Z,0.18
2023-04-15T12:16:51.643Z,0.25
2023-04-15T12:17:51.585Z,0.03
2023-04-15T12:18:50.185Z,0.65
2023-04-15T12:19:50.159Z,0.79
2023-04-15T12:20:50.183Z,0.24
2023-04-15T12:21:50.167Z,0.05
2023-04-15T12:22:50.178Z,0.47
2023-04-15T12:23:50.164Z,0.20
2023-04-15T12:24:50.188Z,1.42
2023-04-15T12:25:50.173Z,0.63
2023-04-15T12:26:50.172Z,0.35
2023-04-15T12:27:50.164Z,0.41
2023-04-15T12:28:50.184Z,0.95
2023-04-15T12:29:50.178Z,0.20
2023-04-15T12:30:50.172Z,0.04
2023-04-15T12:31:50.202Z,0.25
2023-04-15T12:32:50.208Z,0.03
2023-04-15T12:33:50.175Z,0.01
2023-04-15T12:34:50.193Z,0.00
2023-04-15T12:35:50.188Z,0.10
2023-04-15T12:36:50.186Z,0.26
2023-04-15T12:37:50.186Z,0.06
2023-04-15T12:38:50.222Z,0.19
2023-04-15T12:39:50.230Z,0.38
2023-04-15T12:40:50.186Z,0.63
2023-04-15T12:41:50.175Z,0.09
2023-04-15T12:42:50.186Z,0.28
2023-04-15T12:43:50.192Z,0.71
2023-04-15T12:44:50.209Z,0.21
2023-04-15T12:45:50.202Z,0.34
2023-04-15T12:46:50.242Z,1.14
2023-04-15T12:47:50.232Z,0.68
2023-04-15T12:48:50.205Z,0.55
2023-04-15T12:49:50.251Z,0.06
2023-04-15T12:50:50.213Z,0.01
2023-04-15T12:51:50.186Z,0.42
2023-04-15T12:52:50.195Z,0.05
2023-04-15T12:53:50.226Z,0.22
2023-04-15T12:54:50.194Z,0.37
2023-04-15T12:55:50.214Z,0.07
2023-04-15T12:56:50.208Z,0.15
2023-04-15T12:57:50.202Z,0.15
2023-04-15T12:58:50.211Z,0.00
2023-04-15T12:59:50.197Z,0.00
2023-04-15T13:00:50.216Z,0.07
2023-04-15T13:01:50.277Z,0.01
2023-04-15T13:02:50.381Z,0.00
2023-04-15T13:03:50.266Z,0.15
2023-04-15T13:04:50.240Z,0.33
2023-04-15T13:05:50.222Z,0.66
2023-04-15T13:06:50.244Z,0.07
2023-04-15T13:07:50.259Z,0.13
2023-04-15T13:08:58.199Z,0.13
2023-04-15T13:09:50.262Z,0.03
2023-04-15T13:10:50.260Z,0.19
2023-04-15T13:11:50.264Z,0.16
2023-04-15T13:12:50.271Z,0.15
2023-04-15T13:13:50.276Z,0.32
2023-04-15T13:14:50.295Z,0.09
2023-04-15T13:15:50.260Z,0.00
2023-04-15T13:16:50.253Z,0.00
2023-04-15T13:17:50.313Z,0.55
2023-04-15T13:18:50.253Z,0.89
2023-04-15T13:19:50.277Z,0.50